Time;durP1;ratioP1;P1;durP2;ratioP2;P2;SDS_P1;SDS_P2;PMS_P1;PMS_P2;Temp;Humidity;BMP_temperature;BMP_pressure;BME280_temperature;BME280_humidity;BME280_pressure;Samples;Min_cycle;Max_cycle;Signal;HPM_P1;HPM_P2
2022/11/24 00:01:51;;;;;;;13.15;10.23;;;4.80;99.90;;;;;;4996839;28;21020;-76
2022/11/24 00:04:17;;;;;;;13.30;10.80;;;4.90;99.90;;;;;;4999483;28;20681;-76
2022/11/24 00:06:42;;;;;;;11.73;10.07;;;4.80;99.90;;;;;;5001974;28;20264;-75
2022/11/24 00:09:09;;;;;;;12.50;10.75;;;4.70;99.90;;;;;;5003656;28;20225;-75
2022/11/24 00:11:36;;;;;;;11.77;10.57;;;4.70;99.90;;;;;;4992585;28;20186;-75
2022/11/24 00:14:03;;;;;;;10.88;9.77;;;4.70;99.90;;;;;;4994060;28;20672;-76
2022/11/24 00:16:32;;;;;;;11.63;9.57;;;4.80;99.90;;;;;;4998689;28;20210;-76
2022/11/24 00:18:59;;;;;;;10.43;9.43;;;4.80;99.90;;;;;;5004010;28;20308;-76
2022/11/24 00:21:27;;;;;;;12.77;11.48;;;4.80;99.90;;;;;;4997644;28;20177;-75
2022/11/24 00:23:53;;;;;;;10.95;9.85;;;4.90;99.90;;;;;;4993421;28;20178;-75
2022/11/24 00:26:30;;;;;;;12.05;10.50;;;5.00;99.90;;;;;;4998928;28;20189;-75
2022/11/24 00:28:57;;;;;;;13.27;10.43;;;4.90;99.90;;;;;;4993152;28;20181;-76
2022/11/24 00:31:25;;;;;;;11.82;10.65;;;4.80;99.90;;;;;;4992169;28;20543;-75
2022/11/24 00:33:53;;;;;;;12.32;11.13;;;4.70;99.90;;;;;;4992571;28;20188;-75
2022/11/24 00:36:20;;;;;;;11.35;10.23;;;4.90;99.90;;;;;;4993349;28;20177;-75
2022/11/24 00:38:46;;;;;;;13.00;10.45;;;4.90;99.90;;;;;;4992057;28;20217;-74
2022/11/24 00:41:12;;;;;;;14.02;12.13;;;4.90;99.90;;;;;;4991762;28;20185;-75
2022/11/24 00:43:38;;;;;;;12.27;10.63;;;5.00;99.90;;;;;;4993662;28;20225;-74
2022/11/24 00:46:04;;;;;;;10.25;9.30;;;5.00;99.90;;;;;;4987299;28;20222;-76
2022/11/24 00:48:30;;;;;;;12.48;11.23;;;4.90;99.90;;;;;;4986635;28;20185;-77
2022/11/24 00:50:58;;;;;;;13.00;11.23;;;5.00;99.90;;;;;;4992635;28;20679;-76
2022/11/24 00:53:24;;;;;;;11.27;10.02;;;5.00;99.90;;;;;;4990065;28;20221;-76
2022/11/24 00:55:51;;;;;;;10.85;9.75;;;5.00;99.90;;;;;;4984712;28;20222;-76
2022/11/24 00:58:17;;;;;;;11.13;9.68;;;5.00;99.90;;;;;;5000296;28;20252;-77
2022/11/24 01:00:43;;;;;;;11.93;8.98;;;5.00;99.90;;;;;;5007045;28;20178;-75
2022/11/24 01:03:08;;;;;;;10.30;9.30;;;5.00;99.90;;;;;;4991082;28;20548;-76
2022/11/24 01:05:38;;;;;;;11.15;9.95;;;5.10;99.90;;;;;;4991304;28;20197;-76
2022/11/24 01:08:03;;;;;;;11.25;9.70;;;5.20;99.90;;;;;;4995274;28;20174;-76
2022/11/24 01:10:29;;;;;;;10.27;9.27;;;5.10;99.90;;;;;;4992024;28;20667;-76
2022/11/24 01:12:55;;;;;;;10.77;9.18;;;5.00;99.90;;;;;;4994072;28;20197;-75
2022/11/24 01:15:20;;;;;;;8.98;8.20;;;5.00;99.90;;;;;;4996559;28;20213;-76
2022/11/24 01:17:46;;;;;;;10.38;9.20;;;4.90;99.90;;;;;;5005433;28;20205;-75
2022/11/24 01:20:12;;;;;;;9.63;8.48;;;4.90;99.90;;;;;;4995346;28;20177;-76
2022/11/24 01:22:38;;;;;;;9.95;8.90;;;5.00;99.90;;;;;;4983648;28;20261;-76
2022/11/24 01:25:11;;;;;;;9.90;8.93;;;5.10;99.90;;;;;;4990537;28;20197;-76
2022/11/24 01:27:37;;;;;;;8.93;8.13;;;5.10;99.90;;;;;;4992397;28;20779;-75
2022/11/24 01:30:04;;;;;;;10.05;8.52;;;5.10;99.90;;;;;;4986115;28;20192;-74
2022/11/24 01:32:32;;;;;;;9.50;8.50;;;5.10;99.90;;;;;;4985400;28;20289;-73
2022/11/24 01:34:58;;;;;;;10.02;9.13;;;5.00;99.90;;;;;;4980013;28;20217;-74
2022/11/24 01:37:24;;;;;;;9.27;8.38;;;5.10;99.90;;;;;;4979664;28;20212;-74
2022/11/24 01:39:49;;;;;;;8.85;8.02;;;5.10;99.90;;;;;;4982241;28;20516;-74
2022/11/24 01:42:15;;;;;;;9.82;8.93;;;5.10;99.90;;;;;;4983000;28;20285;-74
2022/11/24 01:44:41;;;;;;;9.30;8.45;;;5.10;99.90;;;;;;4981942;28;20197;-74
2022/11/24 01:47:35;;;;;;;9.43;8.52;;;5.10;99.90;;;;;;4981511;28;20285;-74
2022/11/24 01:50:03;;;;;;;9.05;8.23;;;5.20;99.90;;;;;;4982657;28;20268;-74
2022/11/24 01:52:37;;;;;;;9.25;8.38;;;5.10;99.90;;;;;;4988793;28;20186;-74
2022/11/24 01:55:07;;;;;;;9.50;8.50;;;5.10;99.90;;;;;;4990924;28;20205;-75
2022/11/24 01:57:38;;;;;;;8.63;7.72;;;5.20;99.90;;;;;;4992875;28;20197;-75
2022/11/24 02:00:08;;;;;;;10.77;8.38;;;5.10;99.90;;;;;;4992733;28;20719;-75
2022/11/24 02:02:33;;;;;;;9.30;8.23;;;5.10;99.90;;;;;;5000363;28;20241;-75
2022/11/24 02:05:06;;;;;;;8.55;7.63;;;5.10;99.90;;;;;;4997890;28;20348;-75
2022/11/24 02:07:33;;;;;;;8.90;7.97;;;5.20;99.90;;;;;;5002866;28;20643;-75
2022/11/24 02:10:05;;;;;;;9.02;7.47;;;5.10;99.90;;;;;;4992456;28;20185;-75
2022/11/24 02:12:31;;;;;;;9.05;8.15;;;5.20;99.90;;;;;;4988690;28;20193;-76
2022/11/24 02:14:58;;;;;;;9.02;8.15;;;5.20;99.90;;;;;;4998382;28;20198;-75
2022/11/24 02:17:23;;;;;;;9.23;8.25;;;5.10;99.90;;;;;;4985602;28;21112;-74
2022/11/24 02:19:57;;;;;;;9.95;7.90;;;5.10;99.90;;;;;;5001921;28;20361;-74
2022/11/24 02:22:48;;;;;;;7.85;7.05;;;5.10;99.90;;;;;;5004012;28;20179;-74
2022/11/24 02:25:43;;;;;;;8.82;8.00;;;5.10;99.90;;;;;;4989381;28;20243;-74
2022/11/24 02:28:13;;;;;;;8.27;7.47;;;5.20;99.90;;;;;;4998584;28;20178;-74
2022/11/24 02:30:38;;;;;;;9.90;7.15;;;5.20;99.90;;;;;;4991518;28;20256;-74
2022/11/24 02:33:04;;;;;;;7.78;6.95;;;5.20;99.90;;;;;;4993993;28;20189;-74
2022/11/24 02:35:31;;;;;;;7.90;7.15;;;5.20;99.90;;;;;;4991515;28;20264;-74
2022/11/24 02:37:56;;;;;;;9.63;6.43;;;5.20;99.90;;;;;;5003369;28;20202;-75
2022/11/24 02:40:25;;;;;;;6.70;6.10;;;5.20;99.90;;;;;;5002824;28;20184;-75
2022/11/24 02:42:54;;;;;;;11.02;6.60;;;5.20;99.90;;;;;;4995073;28;20197;-75
2022/11/24 02:45:20;;;;;;;9.63;5.10;;;5.30;99.90;;;;;;4990233;28;20575;-74
2022/11/24 02:47:46;;;;;;;11.45;6.53;;;5.30;99.90;;;;;;4997907;28;20173;-75
2022/11/24 02:50:11;;;;;;;7.75;5.85;;;5.30;99.90;;;;;;5000088;28;20181;-75
2022/11/24 02:52:37;;;;;;;11.75;5.63;;;5.40;99.90;;;;;;4995058;28;20205;-75
2022/11/24 02:55:03;;;;;;;8.80;5.50;;;5.50;99.90;;;;;;5002837;28;20198;-75
2022/11/24 02:57:29;;;;;;;11.80;5.43;;;5.40;99.90;;;;;;4993286;28;20217;-75
2022/11/24 02:59:55;;;;;;;10.95;6.05;;;5.40;99.90;;;;;;4994546;28;20272;-75
2022/11/24 03:02:21;;;;;;;7.75;4.90;;;5.50;99.90;;;;;;4993130;28;20208;-75
2022/11/24 03:04:46;;;;;;;9.45;4.63;;;5.50;99.90;;;;;;4992953;28;20281;-75
2022/11/24 03:07:12;;;;;;;11.80;5.50;;;5.50;99.90;;;;;;4994079;28;20192;-74
2022/11/24 03:09:38;;;;;;;8.07;4.18;;;5.60;99.90;;;;;;4994114;28;20545;-75
2022/11/24 03:12:03;;;;;;;10.07;4.68;;;5.60;99.90;;;;;;4994716;28;20197;-75
2022/11/24 03:14:29;;;;;;;5.63;4.45;;;5.60;99.90;;;;;;4994133;28;20627;-75
2022/11/24 03:16:54;;;;;;;4.93;4.15;;;5.60;99.90;;;;;;4992360;28;20209;-74
2022/11/24 03:19:20;;;;;;;11.13;4.80;;;5.80;99.90;;;;;;4991746;28;20181;-74
2022/11/24 03:21:46;;;;;;;11.30;4.75;;;5.80;99.90;;;;;;4991908;28;20217;-75
2022/11/24 03:24:11;;;;;;;8.25;4.65;;;5.90;99.90;;;;;;4992122;28;20618;-75
2022/11/24 03:26:37;;;;;;;9.15;4.10;;;5.90;99.90;;;;;;4991586;28;20194;-74
2022/11/24 03:29:02;;;;;;;9.15;4.40;;;5.90;99.90;;;;;;4994065;28;20267;-73
2022/11/24 03:31:28;;;;;;;14.20;4.72;;;6.00;99.90;;;;;;4994536;28;20192;-74
2022/11/24 03:33:53;;;;;;;7.85;4.18;;;6.00;99.90;;;;;;4994379;28;20333;-74
2022/11/24 03:36:19;;;;;;;5.68;4.43;;;6.00;99.90;;;;;;4993311;28;20185;-74
2022/11/24 03:38:45;;;;;;;9.25;4.28;;;5.90;99.90;;;;;;4994560;28;20174;-74
2022/11/24 03:41:10;;;;;;;9.23;3.65;;;6.00;99.90;;;;;;4993834;28;20220;-74
2022/11/24 03:43:36;;;;;;;11.20;4.65;;;6.00;99.90;;;;;;4992981;28;20197;-74
2022/11/24 03:46:01;;;;;;;10.05;3.70;;;6.00;99.90;;;;;;4998382;28;20232;-74
2022/11/24 03:48:27;;;;;;;7.82;4.05;;;6.00;99.90;;;;;;5003253;28;20235;-74
2022/11/24 03:51:01;;;;;;;8.32;3.67;;;6.10;99.90;;;;;;4995917;28;20185;-74
2022/11/24 03:53:30;;;;;;;5.18;3.20;;;6.10;99.90;;;;;;4992096;28;20184;-75
2022/11/24 03:55:56;;;;;;;8.85;3.78;;;6.10;99.90;;;;;;4994484;28;20198;-74
2022/11/24 03:58:22;;;;;;;6.55;3.50;;;6.10;99.90;;;;;;4994352;28;20202;-74
2022/11/24 04:00:49;;;;;;;12.40;4.53;;;6.10;99.90;;;;;;4996557;28;20201;-74
2022/11/24 04:03:15;;;;;;;6.65;3.58;;;6.10;99.90;;;;;;4997133;28;20186;-73
2022/11/24 04:05:41;;;;;;;9.65;4.18;;;6.10;99.90;;;;;;4993679;28;20546;-74
2022/11/24 04:08:07;;;;;;;9.48;5.47;;;6.10;99.90;;;;;;4990580;28;20370;-74
2022/11/24 04:10:35;;;;;;;8.15;4.50;;;6.20;99.90;;;;;;4993519;28;20186;-75
2022/11/24 04:13:09;;;;;;;10.75;4.35;;;6.30;99.90;;;;;;4991695;28;20618;-75
2022/11/24 04:15:37;;;;;;;11.18;3.70;;;6.20;99.90;;;;;;4995101;28;20228;-75
2022/11/24 04:18:03;;;;;;;3.58;3.10;;;6.20;99.90;;;;;;4993060;28;20588;-75
2022/11/24 04:20:29;;;;;;;15.13;7.22;;;6.20;99.90;;;;;;4994274;28;20231;-75
2022/11/24 04:22:54;;;;;;;12.35;7.07;;;6.20;99.90;;;;;;4999291;28;20236;-76
2022/11/24 04:25:20;;;;;;;8.25;5.43;;;6.20;99.90;;;;;;4993516;28;20201;-76
2022/11/24 04:27:51;;;;;;;8.85;4.85;;;6.10;99.90;;;;;;4988084;28;20186;-76
2022/11/24 04:30:17;;;;;;;11.15;5.10;;;6.20;99.90;;;;;;4992039;28;20181;-77
2022/11/24 04:32:43;;;;;;;8.60;4.90;;;6.20;99.90;;;;;;5011985;28;20675;-75
2022/11/24 04:35:09;;;;;;;8.43;4.22;;;6.20;99.90;;;;;;4989280;28;20214;-75
2022/11/24 04:37:34;;;;;;;11.52;6.03;;;6.30;99.90;;;;;;4987690;28;20576;-74
2022/11/24 04:40:00;;;;;;;12.77;7.30;;;6.30;99.90;;;;;;4981700;28;20187;-75
2022/11/24 04:42:25;;;;;;;9.95;7.03;;;6.30;99.90;;;;;;4986648;28;20189;-74
2022/11/24 04:44:51;;;;;;;16.25;7.55;;;6.30;99.90;;;;;;4984474;28;20206;-74
2022/11/24 04:47:21;;;;;;;10.80;7.30;;;6.30;99.90;;;;;;4979950;28;20276;-73
2022/11/24 04:49:50;;;;;;;17.70;8.63;;;6.20;99.90;;;;;;4980870;28;20534;-75
2022/11/24 04:52:22;;;;;;;11.80;7.55;;;6.30;99.90;;;;;;4978428;28;20190;-75
2022/11/24 04:54:48;;;;;;;13.25;8.52;;;6.30;99.90;;;;;;4975083;28;20221;-74
2022/11/24 04:57:25;;;;;;;8.73;7.10;;;6.30;99.90;;;;;;4976768;28;20214;-74
2022/11/24 04:59:51;;;;;;;7.95;5.90;;;6.30;99.90;;;;;;4976909;28;20174;-73
2022/11/24 05:02:17;;;;;;;11.75;8.88;;;6.40;99.90;;;;;;4977711;28;20185;-74
2022/11/24 05:04:42;;;;;;;15.48;8.23;;;6.40;99.90;;;;;;4977301;28;20574;-75
2022/11/24 05:07:12;;;;;;;7.15;5.32;;;6.40;99.90;;;;;;4976691;28;20198;-75
2022/11/24 05:10:33;;;;;;;10.60;7.35;;;6.40;99.90;;;;;;4977602;28;20237;-75
2022/11/24 05:12:24;;;;;;;12.63;8.40;;;6.40;99.90;;;;;;4978927;28;20189;-75
2022/11/24 05:14:50;;;;;;;14.20;8.25;;;6.40;99.90;;;;;;4981806;28;20672;-75
2022/11/24 05:17:16;;;;;;;10.95;7.53;;;6.20;99.90;;;;;;4978513;28;20212;-75
2022/11/24 05:19:41;;;;;;;10.70;7.75;;;6.20;99.90;;;;;;4979645;28;20660;-74
2022/11/24 05:22:07;;;;;;;14.45;8.43;;;6.10;99.90;;;;;;4987414;28;20174;-75
2022/11/24 05:24:32;;;;;;;8.25;6.90;;;6.10;99.90;;;;;;4992569;28;20205;-75
2022/11/24 05:26:58;;;;;;;9.20;7.10;;;6.00;99.90;;;;;;4992433;28;20182;-74
2022/11/24 05:29:24;;;;;;;9.85;4.88;;;6.10;99.90;;;;;;4995745;28;20185;-75
2022/11/24 05:31:50;;;;;;;11.90;7.13;;;6.10;99.90;;;;;;4991244;28;20178;-75
2022/11/24 05:34:17;;;;;;;7.45;6.65;;;6.10;99.90;;;;;;4993996;28;20224;-75
2022/11/24 05:36:51;;;;;;;9.90;5.95;;;6.10;99.90;;;;;;4985527;28;20631;-75
2022/11/24 05:39:17;;;;;;;7.28;6.35;;;6.10;99.90;;;;;;4997080;28;20212;-74
2022/11/24 05:41:43;;;;;;;15.90;7.72;;;6.20;99.90;;;;;;4991800;28;20205;-74
2022/11/24 05:44:08;;;;;;;14.65;7.97;;;6.20;99.90;;;;;;4991592;28;20205;-73
2022/11/24 05:46:34;;;;;;;9.23;5.88;;;6.20;99.90;;;;;;4987205;28;20212;-75
2022/11/24 05:48:59;;;;;;;11.25;7.32;;;6.30;99.90;;;;;;4977232;28;20233;-75
2022/11/24 05:51:25;;;;;;;10.25;5.72;;;6.30;99.90;;;;;;4978991;28;20186;-75
2022/11/24 05:53:50;;;;;;;7.55;6.03;;;6.30;99.90;;;;;;4983338;28;20181;-75
2022/11/24 05:56:16;;;;;;;12.57;6.95;;;6.20;99.90;;;;;;4990175;28;20200;-75
2022/11/24 05:58:42;;;;;;;15.70;7.10;;;6.20;99.90;;;;;;4984110;28;20209;-75
2022/11/24 06:01:07;;;;;;;8.95;6.85;;;6.20;99.90;;;;;;4978597;28;20429;-75
2022/11/24 06:03:33;;;;;;;14.00;6.47;;;6.20;99.90;;;;;;4974889;28;20186;-76
2022/11/24 06:05:59;;;;;;;9.88;6.80;;;6.00;99.90;;;;;;4981198;28;20209;-75
2022/11/24 06:08:24;;;;;;;10.50;6.93;;;6.00;99.90;;;;;;4985733;28;20210;-75
2022/11/24 06:10:50;;;;;;;11.43;6.88;;;6.00;99.90;;;;;;4978968;28;20198;-76
2022/11/24 06:13:15;;;;;;;9.65;6.18;;;6.10;99.90;;;;;;4981660;28;20195;-77
2022/11/24 06:15:41;;;;;;;12.65;6.80;;;6.00;99.90;;;;;;4981096;28;20242;-76
2022/11/24 06:18:07;;;;;;;11.45;6.20;;;6.00;99.90;;;;;;4988884;28;20201;-75
2022/11/24 06:20:32;;;;;;;11.25;6.20;;;5.90;99.90;;;;;;4985382;28;20189;-75
2022/11/24 06:22:58;;;;;;;13.68;6.43;;;5.90;99.90;;;;;;4982221;28;20664;-75
2022/11/24 06:25:24;;;;;;;10.50;5.93;;;5.80;99.90;;;;;;4987569;28;20210;-75
2022/11/24 06:27:50;;;;;;;8.43;5.57;;;5.70;99.90;;;;;;4988228;28;20679;-74
2022/11/24 06:30:15;;;;;;;8.63;5.28;;;5.70;99.90;;;;;;4981238;28;21789;-75
2022/11/24 06:32:43;;;;;;;8.82;4.90;;;5.80;99.90;;;;;;4982646;28;20194;-76
2022/11/24 06:35:10;;;;;;;8.80;5.68;;;5.80;99.90;;;;;;4983633;28;20669;-75
2022/11/24 06:37:36;;;;;;;11.15;5.25;;;5.80;99.90;;;;;;4984392;28;20202;-76
2022/11/24 06:40:03;;;;;;;10.82;4.60;;;5.80;99.90;;;;;;4984117;28;20197;-76
2022/11/24 06:42:28;;;;;;;5.05;3.42;;;6.00;99.90;;;;;;4984069;28;20190;-75
2022/11/24 06:44:54;;;;;;;7.85;4.45;;;6.10;99.90;;;;;;4981947;28;20631;-77
2022/11/24 06:47:19;;;;;;;5.85;4.10;;;6.20;99.90;;;;;;4983073;28;20209;-76
2022/11/24 06:49:45;;;;;;;6.85;4.97;;;6.20;99.90;;;;;;4983465;28;20177;-76
2022/11/24 06:52:10;;;;;;;7.70;2.88;;;6.20;99.90;;;;;;4986511;28;20229;-76
2022/11/24 06:54:36;;;;;;;4.50;3.70;;;6.20;99.90;;;;;;4982608;28;20232;-76
2022/11/24 06:57:01;;;;;;;9.65;4.65;;;6.30;99.90;;;;;;4982141;28;20209;-76
2022/11/24 06:59:27;;;;;;;9.35;4.30;;;6.40;99.90;;;;;;4985930;28;20216;-76
2022/11/24 07:01:53;;;;;;;12.07;3.83;;;6.40;99.90;;;;;;4993094;28;20177;-76
2022/11/24 07:04:19;;;;;;;7.60;3.30;;;6.40;99.90;;;;;;5001752;28;20198;-78
2022/11/24 07:06:44;;;;;;;6.95;4.07;;;6.50;99.90;;;;;;4988421;28;20174;-76
2022/11/24 07:09:11;;;;;;;4.65;2.97;;;6.50;99.90;;;;;;4987316;28;20186;-77
2022/11/24 07:11:38;;;;;;;5.40;2.40;;;6.50;99.90;;;;;;4987814;28;20189;-77
2022/11/24 07:14:03;;;;;;;8.02;3.45;;;6.50;99.90;;;;;;4982767;28;20186;-77
2022/11/24 07:16:30;;;;;;;4.13;2.72;;;6.60;99.90;;;;;;4983473;28;20548;-77
2022/11/24 07:18:56;;;;;;;6.75;3.45;;;6.60;99.90;;;;;;4982498;28;20719;-76
2022/11/24 07:21:24;;;;;;;10.48;3.53;;;6.60;99.90;;;;;;4988802;28;20281;-76
2022/11/24 07:23:51;;;;;;;5.50;2.60;;;6.50;99.90;;;;;;4995191;28;20240;-78
2022/11/24 07:26:17;;;;;;;5.57;3.22;;;6.60;99.90;;;;;;4993426;28;20707;-75
2022/11/24 07:28:44;;;;;;;6.13;2.88;;;6.60;99.90;;;;;;4984383;28;20196;-77
2022/11/24 07:31:12;;;;;;;5.03;2.25;;;6.70;99.90;;;;;;4981549;28;20201;-76
2022/11/24 07:33:38;;;;;;;3.30;1.73;;;6.80;99.90;;;;;;4986167;28;20738;-75
2022/11/24 07:36:06;;;;;;;5.35;2.55;;;6.90;99.90;;;;;;4989154;28;20292;-76
2022/11/24 07:38:32;;;;;;;5.28;2.45;;;6.90;99.90;;;;;;4986161;28;20221;-79
2022/11/24 07:41:01;;;;;;;4.03;2.35;;;6.90;99.90;;;;;;4988911;28;20181;-78
2022/11/24 07:43:29;;;;;;;5.13;1.95;;;6.90;99.90;;;;;;5001617;28;20209;-76
2022/11/24 07:45:55;;;;;;;3.28;2.45;;;6.90;99.90;;;;;;4991826;28;20198;-77
2022/11/24 07:48:21;;;;;;;2.90;2.65;;;7.00;99.90;;;;;;4992827;28;20555;-76
2022/11/24 07:50:47;;;;;;;3.50;2.33;;;7.10;99.90;;;;;;4999381;28;20180;-77
2022/11/24 07:53:12;;;;;;;3.42;2.70;;;7.20;99.90;;;;;;5000490;28;20550;-75
2022/11/24 07:55:38;;;;;;;2.92;2.70;;;7.40;99.90;;;;;;4993452;28;20736;-75
2022/11/24 07:58:04;;;;;;;2.85;1.85;;;7.50;99.90;;;;;;4990113;28;20233;-74
2022/11/24 08:00:29;;;;;;;2.60;1.60;;;7.50;99.90;;;;;;4992688;28;20240;-75
2022/11/24 08:02:55;;;;;;;2.80;1.77;;;7.60;99.90;;;;;;4993390;28;20176;-76
2022/11/24 08:05:21;;;;;;;3.00;2.00;;;7.70;99.90;;;;;;4993704;28;20218;-75
2022/11/24 08:07:46;;;;;;;2.95;2.55;;;7.80;99.90;;;;;;4995442;28;20182;-75
2022/11/24 08:10:12;;;;;;;5.13;2.15;;;7.70;99.90;;;;;;4993281;28;20720;-75
2022/11/24 08:12:37;;;;;;;6.35;2.90;;;7.80;99.90;;;;;;4984744;28;20178;-75
2022/11/24 08:15:03;;;;;;;4.05;2.00;;;7.80;99.90;;;;;;4984578;28;20684;-75
2022/11/24 08:17:29;;;;;;;2.15;1.98;;;7.80;99.90;;;;;;4991738;28;20696;-75
2022/11/24 08:19:55;;;;;;;4.53;2.25;;;7.80;99.90;;;;;;4992624;28;20177;-75
2022/11/24 08:22:20;;;;;;;7.72;3.17;;;7.80;99.90;;;;;;4989888;28;20182;-75
2022/11/24 08:24:47;;;;;;;8.25;3.47;;;7.80;99.90;;;;;;4997717;28;20194;-78
2022/11/24 08:27:17;;;;;;;3.60;2.50;;;7.90;99.90;;;;;;5000891;28;20239;-78
2022/11/24 08:29:42;;;;;;;4.88;2.83;;;8.00;99.90;;;;;;4996514;28;20603;-79
2022/11/24 08:32:08;;;;;;;6.63;2.50;;;8.10;99.90;;;;;;4993073;28;20178;-76
2022/11/24 08:34:34;;;;;;;6.97;2.35;;;8.20;99.90;;;;;;4993398;28;20206;-77
2022/11/24 08:37:02;;;;;;;3.60;1.90;;;8.30;99.90;;;;;;4996757;28;20206;-76
2022/11/24 08:39:27;;;;;;;2.63;2.03;;;8.50;99.90;;;;;;4990664;28;20185;-76
2022/11/24 08:41:53;;;;;;;5.35;2.67;;;8.80;99.90;;;;;;4992630;28;20178;-76
2022/11/24 08:44:18;;;;;;;2.63;1.48;;;8.80;99.90;;;;;;4991993;28;20587;-76
2022/11/24 08:46:45;;;;;;;3.38;2.10;;;8.80;99.90;;;;;;4990974;28;20189;-76
2022/11/24 08:49:13;;;;;;;6.97;2.50;;;8.80;99.90;;;;;;4989910;28;20612;-76
2022/11/24 08:51:38;;;;;;;4.95;2.10;;;8.80;99.90;;;;;;4993199;28;20208;-76
2022/11/24 08:54:04;;;;;;;5.97;2.47;;;8.80;99.90;;;;;;5000168;28;20269;-76
2022/11/24 08:56:31;;;;;;;2.42;2.15;;;8.70;99.90;;;;;;4990975;28;20169;-76
2022/11/24 08:58:57;;;;;;;5.63;2.60;;;8.70;99.90;;;;;;4991402;28;20189;-76
2022/11/24 09:01:23;;;;;;;4.97;2.08;;;8.70;99.90;;;;;;4992632;28;20637;-75
2022/11/24 09:03:50;;;;;;;5.47;2.38;;;8.70;99.90;;;;;;4997106;28;20646;-76
2022/11/24 09:06:17;;;;;;;6.82;2.22;;;8.70;99.90;;;;;;4989532;28;20209;-76
2022/11/24 09:08:42;;;;;;;3.30;2.13;;;8.80;99.90;;;;;;4992378;28;20182;-76
2022/11/24 09:11:11;;;;;;;2.72;2.53;;;8.70;99.90;;;;;;4991862;28;20397;-77
2022/11/24 09:13:38;;;;;;;3.78;2.10;;;8.80;99.90;;;;;;4987122;28;20190;-76
2022/11/24 09:16:05;;;;;;;6.45;2.58;;;8.80;99.90;;;;;;4993795;28;20200;-76
2022/11/24 09:18:31;;;;;;;3.85;2.45;;;8.80;99.90;;;;;;4991895;28;20216;-77
2022/11/24 09:21:18;;;;;;;2.92;2.40;;;8.90;99.90;;;;;;4987303;28;20190;-76
2022/11/24 09:23:47;;;;;;;6.57;2.17;;;9.10;99.90;;;;;;4987389;28;20189;-77
2022/11/24 09:26:34;;;;;;;4.15;2.72;;;9.30;99.90;;;;;;4991368;28;20194;-77
2022/11/24 09:29:02;;;;;;;4.63;2.08;;;9.30;99.90;;;;;;4989887;28;20189;-77
2022/11/24 09:31:33;;;;;;;4.85;3.05;;;9.50;99.90;;;;;;4987110;28;20182;-76
2022/11/24 09:33:59;;;;;;;1.98;1.63;;;10.00;99.90;;;;;;4989406;28;20182;-76
2022/11/24 09:36:25;;;;;;;3.13;2.03;;;10.20;99.90;;;;;;4991312;28;20185;-76
2022/11/24 09:38:51;;;;;;;4.72;2.38;;;10.30;99.90;;;;;;4989126;28;20207;-76
2022/11/24 09:41:17;;;;;;;4.28;2.38;;;10.40;99.90;;;;;;4994856;28;20174;-78
2022/11/24 09:43:57;;;;;;;4.35;2.25;;;10.90;99.90;;;;;;4990628;28;20240;-77
2022/11/24 09:46:27;;;;;;;2.40;1.48;;;11.90;99.90;;;;;;4990065;28;20237;-78
2022/11/24 09:48:57;;;;;;;3.70;2.30;;;13.30;99.90;;;;;;4987746;28;20201;-77
2022/11/24 09:51:27;;;;;;;2.65;2.22;;;14.00;99.90;;;;;;5006590;28;20213;-79
2022/11/24 09:54:05;;;;;;;5.68;2.47;;;14.00;99.90;;;;;;5002028;28;20224;-77
2022/11/24 09:56:34;;;;;;;5.80;2.78;;;13.40;99.90;;;;;;4999770;28;20174;-78
2022/11/24 09:59:18;;;;;;;4.90;2.00;;;13.20;99.90;;;;;;4996446;28;20174;-74
2022/11/24 10:01:46;;;;;;;6.15;2.63;;;12.90;99.90;;;;;;4993134;28;20189;-74
2022/11/24 10:04:24;;;;;;;4.22;2.20;;;12.60;99.90;;;;;;4997955;28;20224;-75
2022/11/24 10:07:31;;;;;;;5.60;2.50;;;13.90;99.90;;;;;;4991001;28;20659;-75
2022/11/24 10:10:22;;;;;;;2.53;1.83;;;14.80;99.90;;;;;;4986516;28;20547;-75
2022/11/24 10:12:50;;;;;;;6.72;2.72;;;15.60;99.90;;;;;;4984964;28;20184;-75
2022/11/24 10:15:31;;;;;;;5.20;2.53;;;15.20;99.90;;;;;;4992337;28;20209;-75
2022/11/24 10:18:35;;;;;;;4.38;1.92;;;14.80;99.90;;;;;;4996028;28;20186;-74
2022/11/24 10:21:33;;;;;;;4.85;2.30;;;14.20;99.90;;;;;;4988957;28;20208;-75
2022/11/24 10:24:25;;;;;;;4.07;1.45;;;13.80;99.90;;;;;;4980902;28;20167;-75
2022/11/24 10:27:01;;;;;;;4.10;1.75;;;14.30;99.90;;;;;;4984035;28;20600;-75
2022/11/24 10:29:29;;;;;;;6.03;2.30;;;15.20;99.90;;;;;;4984388;28;20256;-76
2022/11/24 10:31:55;;;;;;;4.00;1.75;;;17.10;99.90;;;;;;4982302;28;20233;-74
2022/11/24 10:34:24;;;;;;;5.22;2.00;;;18.70;99.90;;;;;;4992104;28;20685;-74
2022/11/24 10:37:14;;;;;;;1.45;1.10;;;18.40;99.90;;;;;;4995207;28;20656;-74
2022/11/24 10:39:54;;;;;;;8.63;1.88;;;17.30;99.90;;;;;;4998918;28;20304;-74
2022/11/24 10:42:32;;;;;;;6.53;2.05;;;16.80;99.90;;;;;;4993259;28;20260;-74
2022/11/24 10:45:21;;;;;;;5.63;2.70;;;16.00;99.90;;;;;;5000963;28;20244;-75
2022/11/24 10:47:47;;;;;;;3.67;1.90;;;15.00;99.90;;;;;;4995878;28;20170;-75
2022/11/24 10:50:36;;;;;;;2.75;1.48;;;14.60;99.90;;;;;;4992018;28;20593;-74
2022/11/24 10:53:07;;;;;;;7.00;2.75;;;13.90;99.90;;;;;;4993895;28;20189;-75
2022/11/24 10:55:55;;;;;;;7.22;2.05;;;13.10;99.90;;;;;;4994639;28;20289;-74
2022/11/24 10:58:26;;;;;;;3.60;2.17;;;12.00;99.90;;;;;;4994559;28;20209;-74
2022/11/24 11:00:53;;;;;;;6.82;3.08;;;11.20;99.90;;;;;;4990412;28;20656;-74
2022/11/24 11:03:21;;;;;;;4.35;1.73;;;10.60;99.90;;;;;;4991398;28;20672;-75
2022/11/24 11:05:51;;;;;;;9.23;2.33;;;10.00;99.90;;;;;;4994543;28;20198;-72
2022/11/24 11:08:29;;;;;;;5.63;2.70;;;9.70;99.90;;;;;;4995816;28;20591;-72
2022/11/24 11:11:17;;;;;;;5.70;2.70;;;9.40;99.90;;;;;;4992435;28;20184;-71
2022/11/24 11:14:02;;;;;;;2.53;1.40;;;9.30;99.90;;;;;;4980785;28;20189;-71
2022/11/24 11:16:49;;;;;;;3.50;1.95;;;9.40;99.90;;;;;;4990578;28;21790;-72
2022/11/24 11:19:31;;;;;;;4.35;1.88;;;9.50;99.90;;;;;;4993467;28;20174;-71
2022/11/24 11:22:02;;;;;;;3.97;1.40;;;9.50;99.90;;;;;;4982891;28;20261;-74
2022/11/24 11:24:28;;;;;;;3.40;1.42;;;9.40;99.90;;;;;;4994946;28;20194;-74
2022/11/24 11:27:02;;;;;;;4.38;1.35;;;9.50;99.90;;;;;;4991009;28;20628;-74
2022/11/24 11:29:29;;;;;;;3.50;2.00;;;9.40;99.90;;;;;;4994596;28;20286;-74
2022/11/24 11:32:14;;;;;;;2.88;1.67;;;9.30;99.90;;;;;;4986658;28;20193;-73
2022/11/24 11:34:40;;;;;;;4.03;1.92;;;9.20;99.90;;;;;;4978176;28;20271;-73
2022/11/24 11:37:08;;;;;;;4.07;1.60;;;9.10;99.90;;;;;;4991617;28;20217;-72
2022/11/24 11:39:36;;;;;;;3.55;2.03;;;8.80;99.90;;;;;;4994144;28;20179;-73
2022/11/24 11:42:37;;;;;;;4.47;1.80;;;8.70;99.90;;;;;;4995285;28;20174;-73
2022/11/24 11:45:14;;;;;;;4.25;1.65;;;8.50;99.90;;;;;;4990302;28;20559;-74
2022/11/24 11:48:08;;;;;;;3.75;1.90;;;8.40;99.90;;;;;;4996715;28;20182;-74
2022/11/24 11:50:46;;;;;;;2.50;1.80;;;8.50;99.90;;;;;;4996718;28;20652;-73
2022/11/24 11:53:35;;;;;;;4.22;1.95;;;8.40;99.90;;;;;;4987117;28;20252;-74
2022/11/24 11:56:28;;;;;;;3.17;1.58;;;8.30;99.90;;;;;;4986777;28;20213;-73
2022/11/24 11:59:16;;;;;;;2.28;1.80;;;8.40;99.90;;;;;;4997950;28;20252;-72
2022/11/24 12:02:19;;;;;;;2.58;1.77;;;8.30;99.90;;;;;;4991814;28;20205;-73
2022/11/24 12:04:54;;;;;;;3.00;1.70;;;8.50;99.90;;;;;;4988033;28;20206;-74
2022/11/24 12:07:31;;;;;;;3.05;1.17;;;8.60;99.90;;;;;;4990824;28;20243;-74
2022/11/24 12:10:16;;;;;;;2.72;1.40;;;8.50;99.90;;;;;;4988807;28;20298;-75
2022/11/24 12:12:59;;;;;;;2.70;1.50;;;8.40;99.90;;;;;;4986492;28;20289;-75
2022/11/24 12:15:33;;;;;;;3.65;1.42;;;8.50;99.90;;;;;;4996624;28;20229;-75
2022/11/24 12:18:02;;;;;;;3.97;1.92;;;8.50;99.90;;;;;;4985139;28;20245;-75
2022/11/24 12:20:36;;;;;;;1.77;1.40;;;8.60;99.90;;;;;;4984497;28;20720;-75
2022/11/24 12:23:25;;;;;;;3.53;1.67;;;8.50;99.90;;;;;;4986632;28;20192;-75
2022/11/24 12:26:19;;;;;;;2.05;1.50;;;8.60;99.90;;;;;;4992005;28;20197;-75
2022/11/24 12:29:12;;;;;;;3.92;1.20;;;8.50;99.90;;;;;;4981417;28;20665;-75
2022/11/24 12:31:49;;;;;;;2.75;1.33;;;8.40;99.90;;;;;;4978556;28;20189;-75
2022/11/24 12:34:26;;;;;;;1.85;1.27;;;8.40;99.90;;;;;;4985081;28;20308;-74
2022/11/24 12:37:10;;;;;;;1.73;1.63;;;8.20;99.90;;;;;;4978988;28;20270;-74
2022/11/24 12:39:51;;;;;;;1.30;1.17;;;8.10;99.90;;;;;;4987400;28;20185;-75
2022/11/24 12:42:59;;;;;;;3.88;1.63;;;8.00;99.90;;;;;;4978918;28;20666;-75
2022/11/24 12:45:39;;;;;;;2.58;2.22;;;8.10;99.90;;;;;;4978043;28;20591;-74
2022/11/24 12:48:43;;;;;;;2.28;2.13;;;8.10;99.90;;;;;;4996942;28;20197;-74
2022/11/24 12:51:28;;;;;;;2.67;2.47;;;7.90;99.90;;;;;;4985566;28;20220;-74
2022/11/24 12:53:56;;;;;;;2.38;1.70;;;8.00;99.90;;;;;;4978179;28;20234;-74
2022/11/24 12:56:30;;;;;;;2.50;1.60;;;8.20;99.90;;;;;;4979994;28;20184;-74
2022/11/24 12:59:14;;;;;;;2.33;1.70;;;8.40;99.90;;;;;;4982193;28;20719;-74
2022/11/24 13:01:49;;;;;;;2.67;1.73;;;8.30;99.90;;;;;;4983694;28;20185;-74
2022/11/24 13:04:14;;;;;;;3.30;1.92;;;8.70;99.90;;;;;;4976924;28;20212;-74
2022/11/24 13:06:50;;;;;;;4.28;2.55;;;9.00;99.90;;;;;;4979651;28;20202;-73
2022/11/24 13:09:16;;;;;;;1.23;1.10;;;9.30;99.90;;;;;;4980154;28;20178;-73